Terminal Aerodrome Forecast
Issued by NWS

Home | Current Version | Previous Version | Text Only | Print | Product List | Glossary On
Versions: 1 2 3 4 5 6 7 8 9 10 11 12 13 14 15 16
000
FTUS41 KGYX 210520
TAFAUG
TAF
KAUG 210520Z 2106/2206 32009KT P6SM SCT050 BKN100
     FM211400 32011G20KT P6SM BKN050
     FM212300 32006KT P6SM SCT050=

USA.gov is the U.S. government's official web portal to all federal, state and local government web resources and services.